createdAt,value
2019-03-31T00:01:08.440Z,2.20
2019-03-31T00:03:36.058Z,2.20
2019-03-31T00:06:04.518Z,2.10
2019-03-31T00:08:33.021Z,2.10
2019-03-31T00:11:01.451Z,2.10
2019-03-31T00:13:29.982Z,2.10
2019-03-31T00:15:58.477Z,2.10
2019-03-31T00:18:26.923Z,2.10
2019-03-31T00:20:55.391Z,2.10
2019-03-31T00:23:23.958Z,2.00
2019-03-31T00:25:52.443Z,2.00
2019-03-31T00:28:20.969Z,2.00
2019-03-31T00:30:49.446Z,1.80
2019-03-31T00:33:17.946Z,1.60
2019-03-31T00:35:46.401Z,1.80
2019-03-31T00:38:14.872Z,1.90
2019-03-31T00:40:43.302Z,2.00
2019-03-31T00:43:11.790Z,2.10
2019-03-31T00:45:40.254Z,2.20
2019-03-31T00:48:08.745Z,2.20
2019-03-31T00:50:37.173Z,2.10
2019-03-31T00:53:05.607Z,2.10
2019-03-31T00:55:34.093Z,2.20
2019-03-31T00:58:02.557Z,2.30
2019-03-31T01:00:38.747Z,2.40
2019-03-31T01:03:07.548Z,2.30
2019-03-31T01:05:38.235Z,2.10
2019-03-31T01:08:06.762Z,1.90
2019-03-31T01:10:35.205Z,1.70
2019-03-31T01:13:03.981Z,1.60
2019-03-31T01:15:32.694Z,1.60
2019-03-31T01:18:01.216Z,1.60
2019-03-31T01:20:29.639Z,1.60
2019-03-31T01:22:58.086Z,1.70
2019-03-31T01:25:26.711Z,1.70
2019-03-31T01:27:55.501Z,1.70
2019-03-31T01:30:24.610Z,1.60
2019-03-31T01:32:54.078Z,1.60
2019-03-31T01:35:22.980Z,1.70
2019-03-31T01:37:51.438Z,1.70
2019-03-31T01:40:19.903Z,1.70
2019-03-31T01:42:48.358Z,1.70
2019-03-31T01:45:16.825Z,1.80
2019-03-31T01:47:45.283Z,1.70
2019-03-31T01:50:15.357Z,1.80
2019-03-31T01:52:43.832Z,1.90
2019-03-31T01:55:12.448Z,1.90
2019-03-31T01:57:40.931Z,1.90
2019-03-31T02:00:11.673Z,1.90
2019-03-31T02:02:40.121Z,2.00
2019-03-31T02:05:08.627Z,2.00
2019-03-31T02:07:37.153Z,2.00
2019-03-31T02:10:06.695Z,2.10
2019-03-31T02:12:35.169Z,2.10
2019-03-31T02:15:06.233Z,2.10
2019-03-31T02:17:34.695Z,2.10
2019-03-31T02:20:03.530Z,2.20
2019-03-31T02:22:32.013Z,2.20
2019-03-31T02:25:00.485Z,2.20
2019-03-31T02:27:28.993Z,2.20
2019-03-31T02:29:57.491Z,2.30
2019-03-31T02:32:25.948Z,2.30
2019-03-31T02:34:54.436Z,2.40
2019-03-31T02:37:22.965Z,2.50
2019-03-31T02:39:51.429Z,2.60
2019-03-31T02:42:19.903Z,2.50
2019-03-31T02:44:48.435Z,2.60
2019-03-31T02:47:16.881Z,2.60
2019-03-31T02:49:45.410Z,2.60
2019-03-31T02:52:14.145Z,2.70
2019-03-31T02:54:43.343Z,2.60
2019-03-31T02:57:12.202Z,2.50
2019-03-31T02:59:42.892Z,2.50
2019-03-31T03:02:13.471Z,2.50
2019-03-31T03:04:43.053Z,2.40
2019-03-31T03:07:14.251Z,2.40
2019-03-31T03:09:44.675Z,2.50
2019-03-31T03:12:14.058Z,2.50
2019-03-31T03:14:43.547Z,2.50
2019-03-31T03:17:12.054Z,2.50
2019-03-31T03:19:40.561Z,2.50
2019-03-31T03:22:09.081Z,2.50
2019-03-31T03:24:37.541Z,2.50
2019-03-31T03:27:06.096Z,2.50
2019-03-31T03:29:34.619Z,2.60
2019-03-31T03:32:03.097Z,2.50
2019-03-31T03:34:31.662Z,2.50
2019-03-31T03:37:00.190Z,2.40
2019-03-31T03:39:28.746Z,2.40
2019-03-31T03:41:57.185Z,2.30
2019-03-31T03:44:25.680Z,2.30
2019-03-31T03:46:54.131Z,2.20
2019-03-31T03:49:22.590Z,2.20
2019-03-31T03:51:51.014Z,2.10
2019-03-31T03:54:19.507Z,2.10
2019-03-31T03:56:47.960Z,2.10
2019-03-31T03:59:16.487Z,2.00
2019-03-31T04:01:44.959Z,2.00
2019-03-31T04:04:13.449Z,2.00
2019-03-31T04:06:42.009Z,1.90
2019-03-31T04:09:10.473Z,1.70
2019-03-31T04:11:39.005Z,1.80
2019-03-31T04:14:08.312Z,1.70
2019-03-31T04:16:36.766Z,1.70
2019-03-31T04:19:05.310Z,1.60
2019-03-31T04:21:33.907Z,1.60
2019-03-31T04:24:02.449Z,1.60
2019-03-31T04:26:30.919Z,1.40
2019-03-31T04:28:59.366Z,1.30
2019-03-31T04:31:27.831Z,1.20
2019-03-31T04:33:56.339Z,1.00
2019-03-31T04:36:24.933Z,0.90
2019-03-31T04:38:53.447Z,0.90
2019-03-31T04:41:22.071Z,1.00
2019-03-31T04:43:50.523Z,1.00
2019-03-31T04:46:18.995Z,1.00
2019-03-31T04:48:47.443Z,1.00
2019-03-31T04:51:15.959Z,1.00
2019-03-31T04:53:44.459Z,1.00
2019-03-31T04:56:12.978Z,1.00
2019-03-31T04:58:41.475Z,1.00
2019-03-31T05:01:09.902Z,1.00
2019-03-31T05:03:38.391Z,1.10
2019-03-31T05:06:06.846Z,1.10
2019-03-31T05:08:35.301Z,1.10
2019-03-31T05:11:03.762Z,1.10
2019-03-31T05:13:32.193Z,1.10
2019-03-31T05:16:01.995Z,1.30
2019-03-31T05:18:30.555Z,1.40
2019-03-31T05:20:59.001Z,1.50
2019-03-31T05:23:27.467Z,1.60
2019-03-31T05:25:56.899Z,1.70
2019-03-31T05:28:25.369Z,1.80
2019-03-31T05:30:54.521Z,2.00
2019-03-31T05:33:22.966Z,2.00
2019-03-31T05:35:51.466Z,2.20
2019-03-31T05:38:20.020Z,2.20
2019-03-31T05:40:48.458Z,2.30
2019-03-31T05:43:16.995Z,2.20
2019-03-31T05:45:45.503Z,2.20
2019-03-31T05:48:13.965Z,2.40
2019-03-31T05:50:42.427Z,2.60
2019-03-31T05:53:10.912Z,2.80
2019-03-31T05:55:39.358Z,2.90
2019-03-31T05:58:07.820Z,3.10
2019-03-31T06:00:38.326Z,3.30
2019-03-31T06:03:06.758Z,3.40
2019-03-31T06:05:35.287Z,3.50
2019-03-31T06:08:03.794Z,3.60
2019-03-31T06:10:32.264Z,3.70
2019-03-31T06:13:00.730Z,3.70
2019-03-31T06:15:29.307Z,3.70
2019-03-31T06:17:58.752Z,3.80
2019-03-31T06:20:27.313Z,4.00
2019-03-31T06:22:55.803Z,4.00
2019-03-31T06:25:24.306Z,4.00
2019-03-31T06:27:52.771Z,4.10
2019-03-31T06:30:21.349Z,4.30
2019-03-31T06:32:49.825Z,4.50
2019-03-31T06:35:18.312Z,4.60
2019-03-31T06:37:46.780Z,4.80
2019-03-31T06:40:15.238Z,4.80
2019-03-31T06:42:43.793Z,4.80
2019-03-31T06:45:12.351Z,4.80
2019-03-31T06:47:40.832Z,4.90
2019-03-31T06:50:09.351Z,5.00
2019-03-31T06:52:37.851Z,5.10
2019-03-31T06:55:07.660Z,5.20
2019-03-31T06:57:36.189Z,5.40
2019-03-31T07:00:07.477Z,5.50
2019-03-31T07:02:36.760Z,5.60
2019-03-31T07:05:07.158Z,5.70
2019-03-31T07:07:35.610Z,5.80
2019-03-31T07:10:06.133Z,6.00
2019-03-31T07:12:34.558Z,6.10
2019-03-31T07:15:03.868Z,6.40
2019-03-31T07:17:32.391Z,7.10
2019-03-31T07:20:00.854Z,8.20
2019-03-31T07:22:29.326Z,9.40
2019-03-31T07:24:57.762Z,9.80
2019-03-31T07:27:26.242Z,9.90
2019-03-31T07:29:54.734Z,9.60
2019-03-31T07:32:23.238Z,9.80
2019-03-31T07:34:51.725Z,9.80
2019-03-31T07:37:20.159Z,9.70
2019-03-31T07:39:48.950Z,9.70
2019-03-31T07:42:17.578Z,9.50
2019-03-31T07:44:46.074Z,9.40
2019-03-31T07:47:14.586Z,9.30
2019-03-31T07:49:43.052Z,9.20
2019-03-31T07:52:11.562Z,9.20
2019-03-31T07:54:40.066Z,9.30
2019-03-31T07:57:08.560Z,9.50
2019-03-31T07:59:37.069Z,9.60
2019-03-31T08:02:05.604Z,10.00
2019-03-31T08:04:34.074Z,10.20
2019-03-31T08:07:02.560Z,10.60
2019-03-31T08:09:31.098Z,11.10
2019-03-31T08:12:00.351Z,12.50
2019-03-31T08:14:28.915Z,13.10
2019-03-31T08:16:57.445Z,13.10
2019-03-31T08:19:26.008Z,13.10
2019-03-31T08:21:54.469Z,13.00
2019-03-31T08:24:22.950Z,12.90
2019-03-31T08:26:51.475Z,13.10
2019-03-31T08:29:19.935Z,12.90
2019-03-31T08:31:48.431Z,13.10
2019-03-31T08:34:16.919Z,13.70
2019-03-31T08:36:45.456Z,14.30
2019-03-31T08:39:14.002Z,13.90
2019-03-31T08:41:42.566Z,13.70
2019-03-31T08:44:11.079Z,13.30
2019-03-31T08:46:39.543Z,13.20
2019-03-31T08:49:08.033Z,13.40
2019-03-31T08:51:36.507Z,13.30
2019-03-31T08:54:04.974Z,13.30
2019-03-31T08:56:33.744Z,13.40
2019-03-31T08:59:02.298Z,13.40
2019-03-31T09:01:33.339Z,13.50
2019-03-31T09:04:02.611Z,13.50
2019-03-31T09:06:31.217Z,13.60
2019-03-31T09:08:59.670Z,13.70
2019-03-31T09:11:28.977Z,13.80
2019-03-31T09:13:58.871Z,13.90
2019-03-31T09:16:28.389Z,14.20
2019-03-31T09:18:56.873Z,13.90
2019-03-31T09:21:25.395Z,13.50
2019-03-31T09:23:53.884Z,13.30
2019-03-31T09:26:22.317Z,13.50
2019-03-31T09:28:50.820Z,13.80
2019-03-31T09:31:19.294Z,14.20
2019-03-31T09:33:47.771Z,14.60
2019-03-31T09:36:16.906Z,14.80
2019-03-31T09:38:45.684Z,15.20
2019-03-31T09:41:14.189Z,15.30
2019-03-31T09:43:42.651Z,15.20
2019-03-31T09:46:11.146Z,15.20
2019-03-31T09:48:39.585Z,15.00
2019-03-31T09:51:08.046Z,15.00
2019-03-31T09:53:36.545Z,15.20
2019-03-31T09:56:04.994Z,15.20
2019-03-31T09:58:33.446Z,15.30
2019-03-31T10:01:01.894Z,15.40
2019-03-31T10:03:30.394Z,15.60
2019-03-31T10:06:09.987Z,15.00
2019-03-31T10:08:29.301Z,15.10
2019-03-31T10:10:57.765Z,14.70
2019-03-31T10:13:26.205Z,14.30
2019-03-31T10:15:54.663Z,14.30
2019-03-31T10:18:23.147Z,14.00
2019-03-31T10:20:51.703Z,14.10
2019-03-31T10:23:20.161Z,13.70
2019-03-31T10:25:48.655Z,13.80
2019-03-31T10:28:17.137Z,14.00
2019-03-31T10:30:45.674Z,13.80
2019-03-31T10:33:14.202Z,13.90
2019-03-31T10:35:42.705Z,13.90
2019-03-31T10:38:11.199Z,13.90
2019-03-31T10:40:39.753Z,13.80
2019-03-31T10:43:08.203Z,13.80
2019-03-31T10:45:36.644Z,13.90
2019-03-31T10:48:19.199Z,13.80
2019-03-31T10:50:35.544Z,13.60
2019-03-31T10:53:04.098Z,13.30
2019-03-31T10:55:32.602Z,13.30
2019-03-31T10:58:01.425Z,13.30
2019-03-31T11:00:37.385Z,13.30
2019-03-31T11:03:07.128Z,13.30
2019-03-31T11:05:35.690Z,13.40
2019-03-31T11:08:04.587Z,13.40
2019-03-31T11:10:33.124Z,13.40
2019-03-31T11:13:01.597Z,13.50
2019-03-31T11:15:30.129Z,13.40
2019-03-31T11:17:58.586Z,13.30
2019-03-31T11:20:27.128Z,13.40
2019-03-31T11:22:57.258Z,13.30
2019-03-31T11:25:29.229Z,13.30
2019-03-31T11:27:55.926Z,13.30
2019-03-31T11:30:24.433Z,13.60
2019-03-31T11:32:52.938Z,13.80
2019-03-31T11:35:21.529Z,13.80
2019-03-31T11:37:50.083Z,14.10
2019-03-31T11:40:18.725Z,14.30
2019-03-31T11:42:47.323Z,14.40
2019-03-31T11:45:16.131Z,14.30
2019-03-31T11:47:44.680Z,14.10
2019-03-31T11:50:13.737Z,14.00
2019-03-31T11:52:42.287Z,14.20
2019-03-31T11:55:10.942Z,14.40
2019-03-31T11:57:39.442Z,14.30
2019-03-31T12:00:11.853Z,14.40
2019-03-31T12:02:40.543Z,14.40
2019-03-31T12:05:09.428Z,14.30
2019-03-31T12:07:46.799Z,14.20
2019-03-31T12:10:08.858Z,14.20
2019-03-31T12:12:37.505Z,14.20
2019-03-31T12:15:07.416Z,14.10
2019-03-31T12:17:36.451Z,14.20
2019-03-31T12:20:06.723Z,14.20
2019-03-31T12:22:35.214Z,14.00
2019-03-31T12:25:05.258Z,14.00
2019-03-31T12:27:33.802Z,14.00
2019-03-31T12:30:02.353Z,13.60
2019-03-31T12:32:31.442Z,13.70
2019-03-31T12:35:00.002Z,13.60
2019-03-31T12:37:41.721Z,13.40
2019-03-31T12:39:58.741Z,13.60
2019-03-31T12:42:27.258Z,13.50
2019-03-31T12:44:55.788Z,13.60
2019-03-31T12:47:24.241Z,13.70
2019-03-31T12:49:52.720Z,13.30
2019-03-31T12:52:21.184Z,13.10
2019-03-31T12:54:49.762Z,13.00
2019-03-31T12:57:18.327Z,13.30
2019-03-31T12:59:46.843Z,13.50
2019-03-31T13:02:15.278Z,13.50
2019-03-31T13:04:43.754Z,13.40
2019-03-31T13:07:14.933Z,13.30
2019-03-31T13:09:42.421Z,13.00
2019-03-31T13:12:10.866Z,12.90
2019-03-31T13:14:39.383Z,12.90
2019-03-31T13:17:07.899Z,12.90
2019-03-31T13:19:36.378Z,12.70
2019-03-31T13:22:04.847Z,12.60
2019-03-31T13:24:33.403Z,12.60
2019-03-31T13:27:02.705Z,12.60
2019-03-31T13:29:31.196Z,12.50
2019-03-31T13:31:59.753Z,12.30
2019-03-31T13:34:28.343Z,12.40
2019-03-31T13:36:56.903Z,12.20
2019-03-31T13:39:25.420Z,12.00
2019-03-31T13:41:53.934Z,12.00
2019-03-31T13:44:22.399Z,12.00
2019-03-31T13:46:50.886Z,12.10
2019-03-31T13:49:19.539Z,12.20
2019-03-31T13:51:48.101Z,12.30
2019-03-31T13:54:16.707Z,12.30
2019-03-31T13:56:48.617Z,12.30
2019-03-31T13:59:15.858Z,12.30
2019-03-31T14:01:44.927Z,12.30
2019-03-31T14:04:13.448Z,12.20
2019-03-31T14:06:42.107Z,12.00
2019-03-31T14:09:10.636Z,11.90
2019-03-31T14:11:39.112Z,12.00
2019-03-31T14:14:07.706Z,12.00
2019-03-31T14:16:36.311Z,11.90
2019-03-31T14:19:04.901Z,11.70
2019-03-31T14:21:33.419Z,11.70
2019-03-31T14:24:01.899Z,11.60
2019-03-31T14:26:30.490Z,11.70
2019-03-31T14:28:58.955Z,11.60
2019-03-31T14:31:27.529Z,11.30
2019-03-31T14:33:56.157Z,11.40
2019-03-31T14:36:24.620Z,11.40
2019-03-31T14:41:23.106Z,11.60
2019-03-31T14:43:51.634Z,11.40
2019-03-31T14:46:20.182Z,11.40
2019-03-31T14:48:48.714Z,11.30
2019-03-31T14:51:17.175Z,11.10
2019-03-31T14:53:45.671Z,11.10
2019-03-31T14:56:14.176Z,11.20
2019-03-31T14:58:42.790Z,11.20
2019-03-31T15:01:11.294Z,11.10
2019-03-31T15:03:39.994Z,11.10
2019-03-31T15:06:08.687Z,11.20
2019-03-31T15:08:37.493Z,10.90
2019-03-31T15:11:05.999Z,10.70
2019-03-31T15:13:34.617Z,10.70
2019-03-31T15:16:03.143Z,10.50
2019-03-31T15:18:31.642Z,10.40
2019-03-31T15:21:00.606Z,10.40
2019-03-31T15:23:29.506Z,10.50
2019-03-31T15:25:58.298Z,10.50
2019-03-31T15:28:26.734Z,10.30
2019-03-31T15:30:55.288Z,10.00
2019-03-31T15:33:23.773Z,9.80
2019-03-31T15:35:52.246Z,9.70
2019-03-31T15:38:20.680Z,9.70
2019-03-31T15:40:49.186Z,9.70
2019-03-31T15:43:17.776Z,9.60
2019-03-31T15:45:46.310Z,9.40
2019-03-31T15:48:14.789Z,9.30
2019-03-31T15:50:43.296Z,9.20
2019-03-31T15:53:11.810Z,9.00
2019-03-31T15:55:40.352Z,8.80
2019-03-31T15:58:08.834Z,8.70
2019-03-31T16:00:37.287Z,8.60
2019-03-31T16:03:05.793Z,8.40
2019-03-31T16:05:34.431Z,8.30
2019-03-31T16:08:02.911Z,8.20
2019-03-31T16:10:31.389Z,8.20
2019-03-31T16:13:00.923Z,8.20
2019-03-31T16:15:29.480Z,8.10
2019-03-31T16:17:58.078Z,8.10
2019-03-31T16:20:26.524Z,8.00
2019-03-31T16:22:54.997Z,7.90
2019-03-31T16:25:30.540Z,7.80
2019-03-31T16:27:59.141Z,7.70
2019-03-31T16:30:27.680Z,7.70
2019-03-31T16:32:56.258Z,7.80
2019-03-31T16:35:24.831Z,7.70
2019-03-31T16:37:53.406Z,7.60
2019-03-31T16:40:21.980Z,7.50
2019-03-31T16:42:50.480Z,7.50
2019-03-31T16:45:19.009Z,7.40
2019-03-31T16:47:47.614Z,7.50
2019-03-31T16:50:16.310Z,7.40
2019-03-31T16:52:44.833Z,7.30
2019-03-31T16:55:13.576Z,7.30
2019-03-31T16:57:42.030Z,7.40
2019-03-31T17:00:10.810Z,7.30
2019-03-31T17:02:39.305Z,7.40
2019-03-31T17:05:21.147Z,7.40
2019-03-31T17:07:38.723Z,7.40
2019-03-31T17:10:10.582Z,7.40
2019-03-31T17:12:39.009Z,7.40
2019-03-31T17:15:08.467Z,7.40
2019-03-31T17:17:36.994Z,7.40
2019-03-31T17:20:07.110Z,7.30
2019-03-31T17:22:35.552Z,7.30
2019-03-31T17:25:05.073Z,7.30
2019-03-31T17:27:33.506Z,7.30
2019-03-31T17:30:04.492Z,7.20
2019-03-31T17:32:33.008Z,7.20
2019-03-31T17:35:03.474Z,7.10
2019-03-31T17:37:31.938Z,7.00
2019-03-31T17:40:06.525Z,7.00
2019-03-31T17:42:32.193Z,7.00
2019-03-31T17:45:01.578Z,7.00
2019-03-31T17:47:30.051Z,6.90
2019-03-31T17:49:58.573Z,6.90
2019-03-31T17:52:27.044Z,6.90
2019-03-31T17:54:55.551Z,6.90
2019-03-31T17:57:24.082Z,6.90
2019-03-31T17:59:52.552Z,6.90
2019-03-31T18:02:21.028Z,6.90
2019-03-31T18:04:49.482Z,6.90
2019-03-31T18:07:18.057Z,6.80
2019-03-31T18:09:46.584Z,6.80
2019-03-31T18:12:15.054Z,6.80
2019-03-31T18:14:43.544Z,6.80
2019-03-31T18:17:12.053Z,6.80
2019-03-31T18:19:40.561Z,6.70
2019-03-31T18:22:16.364Z,6.70
2019-03-31T18:24:39.249Z,6.70
2019-03-31T18:27:07.726Z,6.80
2019-03-31T18:29:36.207Z,6.70
2019-03-31T18:32:04.686Z,6.70
2019-03-31T18:34:33.193Z,6.70
2019-03-31T18:37:01.802Z,6.60
2019-03-31T18:39:30.276Z,6.60
2019-03-31T18:41:58.823Z,6.60
2019-03-31T18:44:27.260Z,6.60
2019-03-31T18:46:55.768Z,6.70
2019-03-31T18:49:24.348Z,6.70
2019-03-31T18:51:52.947Z,6.70
2019-03-31T18:54:25.772Z,6.70
2019-03-31T18:57:07.928Z,6.80
2019-03-31T18:59:47.218Z,6.80
2019-03-31T19:02:17.295Z,6.80
2019-03-31T19:04:50.351Z,6.80
2019-03-31T19:07:20.509Z,6.80
2019-03-31T19:09:56.811Z,6.90
2019-03-31T19:12:38.973Z,6.80
2019-03-31T19:15:24.779Z,6.80
2019-03-31T19:18:11.644Z,6.70
2019-03-31T19:20:44.833Z,6.80
2019-03-31T19:23:20.957Z,6.80
2019-03-31T19:26:03.312Z,6.70
2019-03-31T19:28:33.764Z,6.70
2019-03-31T19:31:09.838Z,6.60
2019-03-31T19:33:56.039Z,6.50
2019-03-31T19:36:32.189Z,6.50
2019-03-31T19:39:04.983Z,6.50
2019-03-31T19:41:43.884Z,6.40
2019-03-31T19:44:29.897Z,6.40
2019-03-31T19:47:01.115Z,6.40
2019-03-31T19:49:47.245Z,6.30
2019-03-31T19:52:26.366Z,6.30
2019-03-31T19:54:59.406Z,6.30
2019-03-31T19:57:32.643Z,6.30
2019-03-31T20:00:10.917Z,6.30
2019-03-31T20:02:41.130Z,6.30
2019-03-31T20:05:13.934Z,6.30
2019-03-31T20:08:01.015Z,6.20
2019-03-31T20:10:37.368Z,6.20
2019-03-31T20:13:07.500Z,6.20
2019-03-31T20:15:37.633Z,6.20
2019-03-31T20:18:22.613Z,6.20
2019-03-31T20:21:08.751Z,6.20
2019-03-31T20:23:38.928Z,6.20
2019-03-31T20:26:25.180Z,6.10
2019-03-31T20:29:11.747Z,6.10
2019-03-31T20:31:53.522Z,6.10
2019-03-31T20:34:26.274Z,6.00
2019-03-31T20:36:56.422Z,6.00
2019-03-31T20:39:56.108Z,6.00
2019-03-31T20:42:37.766Z,6.00
2019-03-31T20:45:07.748Z,5.90
2019-03-31T20:47:36.194Z,5.90
2019-03-31T20:50:06.513Z,5.90
2019-03-31T20:52:34.966Z,5.90
2019-03-31T20:55:15.692Z,5.90
2019-03-31T20:57:33.881Z,5.80
2019-03-31T21:00:02.586Z,5.80
2019-03-31T21:02:31.087Z,5.60
2019-03-31T21:05:00.997Z,5.60
2019-03-31T21:07:29.455Z,5.60
2019-03-31T21:09:57.915Z,5.50
2019-03-31T21:12:26.386Z,5.50
2019-03-31T21:14:54.864Z,5.50
2019-03-31T21:17:23.413Z,5.40
2019-03-31T21:19:51.939Z,5.30
2019-03-31T21:22:20.362Z,5.20
2019-03-31T21:24:48.824Z,5.10
2019-03-31T21:27:17.281Z,5.20
2019-03-31T21:29:45.746Z,5.20
2019-03-31T21:32:14.292Z,5.20
2019-03-31T21:34:42.821Z,5.10
2019-03-31T21:37:11.301Z,5.10
2019-03-31T21:39:39.798Z,5.10
2019-03-31T21:42:08.277Z,5.10
2019-03-31T21:44:36.782Z,5.10
2019-03-31T21:47:05.317Z,5.10
2019-03-31T21:49:33.754Z,5.10
2019-03-31T21:52:02.189Z,5.00
2019-03-31T21:54:30.677Z,5.00
2019-03-31T21:56:59.372Z,5.00
2019-03-31T21:59:27.915Z,5.00
2019-03-31T22:01:56.457Z,5.00
2019-03-31T22:04:25.083Z,5.00
2019-03-31T22:06:53.595Z,5.00
2019-03-31T22:09:22.053Z,4.90
2019-03-31T22:11:50.685Z,4.90
2019-03-31T22:14:19.137Z,4.80
2019-03-31T22:16:47.623Z,4.70
2019-03-31T22:19:16.069Z,4.70
2019-03-31T22:21:44.599Z,4.70
2019-03-31T22:24:13.025Z,4.70
2019-03-31T22:26:41.519Z,4.70
2019-03-31T22:29:10.040Z,4.70
2019-03-31T22:31:38.623Z,4.60
2019-03-31T22:34:07.127Z,4.60
2019-03-31T22:36:35.597Z,4.60
2019-03-31T22:39:05.897Z,4.60
2019-03-31T22:41:34.346Z,4.50
2019-03-31T22:44:03.910Z,4.40
2019-03-31T22:46:32.436Z,4.40
2019-03-31T22:49:01.151Z,4.40
2019-03-31T22:51:29.672Z,4.40
2019-03-31T22:53:58.212Z,4.30
2019-03-31T22:56:26.759Z,4.30
2019-03-31T22:58:55.197Z,4.20
2019-03-31T23:01:23.694Z,4.20
2019-03-31T23:03:52.161Z,4.20
2019-03-31T23:06:23.640Z,4.20
2019-03-31T23:08:52.133Z,4.20
2019-03-31T23:11:20.595Z,4.20
2019-03-31T23:13:49.064Z,4.10
2019-03-31T23:16:17.491Z,4.10
2019-03-31T23:18:45.920Z,4.10
2019-03-31T23:21:14.405Z,4.00
2019-03-31T23:23:42.846Z,4.00
2019-03-31T23:26:11.342Z,4.00
2019-03-31T23:28:41.419Z,3.90
2019-03-31T23:31:10.278Z,3.90
2019-03-31T23:33:38.769Z,3.90
2019-03-31T23:36:07.334Z,3.80
2019-03-31T23:38:35.947Z,3.80
2019-03-31T23:41:08.249Z,3.80
2019-03-31T23:43:36.738Z,3.80
2019-03-31T23:46:05.514Z,3.80
2019-03-31T23:48:33.969Z,3.80
2019-03-31T23:51:02.810Z,3.70
2019-03-31T23:53:31.303Z,3.70
2019-03-31T23:55:59.753Z,3.70
2019-03-31T23:58:28.434Z,3.70
